sensor_id;sensor_type;location;lat;lon;timestamp;temperature;humidity
32698;DHT22;19087;51.062;3.754;2023-05-02T00:02:10;13.40;99.90
32698;DHT22;19087;51.062;3.754;2023-05-02T00:04:36;13.30;99.90
32698;DHT22;19087;51.062;3.754;2023-05-02T00:07:02;13.30;99.90
32698;DHT22;19087;51.062;3.754;2023-05-02T00:09:28;13.60;99.90
32698;DHT22;19087;51.062;3.754;2023-05-02T00:11:54;13.80;99.90
32698;DHT22;19087;51.062;3.754;2023-05-02T00:14:20;13.80;99.90
32698;DHT22;19087;51.062;3.754;2023-05-02T00:16:46;13.80;99.90
32698;DHT22;19087;51.062;3.754;2023-05-02T00:19:11;13.80;99.90
32698;DHT22;19087;51.062;3.754;2023-05-02T00:21:38;13.60;99.90
32698;DHT22;19087;51.062;3.754;2023-05-02T00:24:04;13.60;99.90
32698;DHT22;19087;51.062;3.754;2023-05-02T00:26:29;13.60;99.90
32698;DHT22;19087;51.062;3.754;2023-05-02T00:28:56;13.60;99.90
32698;DHT22;19087;51.062;3.754;2023-05-02T00:31:22;13.50;99.90
32698;DHT22;19087;51.062;3.754;2023-05-02T00:33:48;13.40;99.90
32698;DHT22;19087;51.062;3.754;2023-05-02T00:36:18;13.30;99.90
32698;DHT22;19087;51.062;3.754;2023-05-02T00:38:44;13.20;99.90
32698;DHT22;19087;51.062;3.754;2023-05-02T00:41:11;13.20;99.90
32698;DHT22;19087;51.062;3.754;2023-05-02T00:43:37;13.20;99.90
32698;DHT22;19087;51.062;3.754;2023-05-02T00:46:10;13.30;99.90
32698;DHT22;19087;51.062;3.754;2023-05-02T00:48:43;13.20;99.90
32698;DHT22;19087;51.062;3.754;2023-05-02T00:51:09;13.30;99.90
32698;DHT22;19087;51.062;3.754;2023-05-02T00:53:38;13.30;99.90
32698;DHT22;19087;51.062;3.754;2023-05-02T00:56:04;13.30;99.90
32698;DHT22;19087;51.062;3.754;2023-05-02T00:58:30;13.40;99.90
32698;DHT22;19087;51.062;3.754;2023-05-02T01:03:55;13.70;99.90
32698;DHT22;19087;51.062;3.754;2023-05-02T01:06:40;13.60;99.90
32698;DHT22;19087;51.062;3.754;2023-05-02T01:09:33;13.40;99.90
32698;DHT22;19087;51.062;3.754;2023-05-02T01:14:48;13.30;99.90
32698;DHT22;19087;51.062;3.754;2023-05-02T01:17:16;13.40;99.90
32698;DHT22;19087;51.062;3.754;2023-05-02T01:19:49;13.60;99.90
32698;DHT22;19087;51.062;3.754;2023-05-02T01:22:17;13.50;99.90
32698;DHT22;19087;51.062;3.754;2023-05-02T01:30:35;13.50;99.90
32698;DHT22;19087;51.062;3.754;2023-05-02T01:33:03;13.60;99.90
32698;DHT22;19087;51.062;3.754;2023-05-02T01:35:32;13.50;99.90
32698;DHT22;19087;51.062;3.754;2023-05-02T01:37:59;13.40;99.90
32698;DHT22;19087;51.062;3.754;2023-05-02T01:40:28;13.40;99.90
32698;DHT22;19087;51.062;3.754;2023-05-02T01:42:56;13.50;99.90
32698;DHT22;19087;51.062;3.754;2023-05-02T01:45:23;13.60;99.90
32698;DHT22;19087;51.062;3.754;2023-05-02T01:47:51;13.50;99.90
32698;DHT22;19087;51.062;3.754;2023-05-02T01:50:21;13.60;99.90
32698;DHT22;19087;51.062;3.754;2023-05-02T01:52:51;13.50;99.90
32698;DHT22;19087;51.062;3.754;2023-05-02T01:55:19;13.60;99.90
32698;DHT22;19087;51.062;3.754;2023-05-02T01:57:46;13.60;99.90
32698;DHT22;19087;51.062;3.754;2023-05-02T02:00:15;13.50;99.90
32698;DHT22;19087;51.062;3.754;2023-05-02T02:02:42;13.50;99.90
32698;DHT22;19087;51.062;3.754;2023-05-02T02:05:09;13.60;99.90
32698;DHT22;19087;51.062;3.754;2023-05-02T02:07:36;13.50;99.90
32698;DHT22;19087;51.062;3.754;2023-05-02T02:10:02;13.50;99.90
32698;DHT22;19087;51.062;3.754;2023-05-02T02:12:50;13.40;99.90
32698;DHT22;19087;51.062;3.754;2023-05-02T02:20:14;13.20;99.90
32698;DHT22;19087;51.062;3.754;2023-05-02T02:22:42;13.10;99.90
32698;DHT22;19087;51.062;3.754;2023-05-02T02:25:15;13.10;99.90
32698;DHT22;19087;51.062;3.754;2023-05-02T02:27:41;12.70;99.90
32698;DHT22;19087;51.062;3.754;2023-05-02T02:30:08;12.60;99.90
32698;DHT22;19087;51.062;3.754;2023-05-02T02:32:34;12.70;99.90
32698;DHT22;19087;51.062;3.754;2023-05-02T02:35:01;12.80;99.90
32698;DHT22;19087;51.062;3.754;2023-05-02T02:37:32;12.70;99.90
32698;DHT22;19087;51.062;3.754;2023-05-02T02:40:07;12.60;99.90
32698;DHT22;19087;51.062;3.754;2023-05-02T02:43:05;12.60;99.90
32698;DHT22;19087;51.062;3.754;2023-05-02T02:48:56;12.60;99.90
32698;DHT22;19087;51.062;3.754;2023-05-02T02:51:30;12.50;99.90
32698;DHT22;19087;51.062;3.754;2023-05-02T02:54:13;12.30;99.90
32698;DHT22;19087;51.062;3.754;2023-05-02T02:56:47;12.30;99.90
32698;DHT22;19087;51.062;3.754;2023-05-02T02:59:18;12.10;99.90
32698;DHT22;19087;51.062;3.754;2023-05-02T03:01:49;12.20;99.90
32698;DHT22;19087;51.062;3.754;2023-05-02T03:04:20;12.30;99.90
32698;DHT22;19087;51.062;3.754;2023-05-02T03:06:48;12.40;99.90
32698;DHT22;19087;51.062;3.754;2023-05-02T03:09:14;12.40;99.90
32698;DHT22;19087;51.062;3.754;2023-05-02T03:11:43;12.40;99.90
32698;DHT22;19087;51.062;3.754;2023-05-02T03:14:10;12.40;99.90
32698;DHT22;19087;51.062;3.754;2023-05-02T03:16:40;12.30;99.90
32698;DHT22;19087;51.062;3.754;2023-05-02T03:19:06;12.30;99.90
32698;DHT22;19087;51.062;3.754;2023-05-02T03:21:33;12.20;99.90
32698;DHT22;19087;51.062;3.754;2023-05-02T03:24:00;12.10;99.90
32698;DHT22;19087;51.062;3.754;2023-05-02T03:26:27;12.10;99.90
32698;DHT22;19087;51.062;3.754;2023-05-02T03:28:53;12.20;99.90
32698;DHT22;19087;51.062;3.754;2023-05-02T03:31:20;12.20;99.90
32698;DHT22;19087;51.062;3.754;2023-05-02T03:33:46;12.20;99.90
32698;DHT22;19087;51.062;3.754;2023-05-02T03:36:12;12.10;99.90
32698;DHT22;19087;51.062;3.754;2023-05-02T03:38:38;12.20;99.90
32698;DHT22;19087;51.062;3.754;2023-05-02T03:41:04;12.30;99.90
32698;DHT22;19087;51.062;3.754;2023-05-02T03:43:30;12.30;99.90
32698;DHT22;19087;51.062;3.754;2023-05-02T03:46:02;12.40;99.90
32698;DHT22;19087;51.062;3.754;2023-05-02T03:48:29;12.30;99.90
32698;DHT22;19087;51.062;3.754;2023-05-02T03:50:55;12.40;99.90
32698;DHT22;19087;51.062;3.754;2023-05-02T03:53:22;12.30;99.90
32698;DHT22;19087;51.062;3.754;2023-05-02T03:55:48;12.10;99.90
32698;DHT22;19087;51.062;3.754;2023-05-02T03:58:15;12.00;99.90
32698;DHT22;19087;51.062;3.754;2023-05-02T04:00:41;12.30;99.90
32698;DHT22;19087;51.062;3.754;2023-05-02T04:03:07;12.40;99.90
32698;DHT22;19087;51.062;3.754;2023-05-02T04:05:33;12.40;99.90
32698;DHT22;19087;51.062;3.754;2023-05-02T04:07:59;12.50;99.90
32698;DHT22;19087;51.062;3.754;2023-05-02T04:10:25;12.50;99.90
32698;DHT22;19087;51.062;3.754;2023-05-02T04:12:51;12.40;99.90
32698;DHT22;19087;51.062;3.754;2023-05-02T04:15:16;12.30;99.90
32698;DHT22;19087;51.062;3.754;2023-05-02T04:17:42;12.30;99.90
32698;DHT22;19087;51.062;3.754;2023-05-02T04:20:10;12.50;99.90
32698;DHT22;19087;51.062;3.754;2023-05-02T04:22:35;12.60;99.90
32698;DHT22;19087;51.062;3.754;2023-05-02T04:25:05;12.60;99.90
32698;DHT22;19087;51.062;3.754;2023-05-02T04:27:32;12.70;99.90
32698;DHT22;19087;51.062;3.754;2023-05-02T04:29:57;12.70;99.90
32698;DHT22;19087;51.062;3.754;2023-05-02T04:32:23;12.60;99.90
32698;DHT22;19087;51.062;3.754;2023-05-02T04:34:50;12.60;99.90
32698;DHT22;19087;51.062;3.754;2023-05-02T04:37:16;12.60;99.90
32698;DHT22;19087;51.062;3.754;2023-05-02T04:39:41;12.70;99.90
32698;DHT22;19087;51.062;3.754;2023-05-02T04:42:07;12.60;99.90
32698;DHT22;19087;51.062;3.754;2023-05-02T04:44:33;12.80;99.90
32698;DHT22;19087;51.062;3.754;2023-05-02T04:46:58;12.90;99.90
32698;DHT22;19087;51.062;3.754;2023-05-02T04:49:24;12.90;99.90
32698;DHT22;19087;51.062;3.754;2023-05-02T04:51:50;13.00;99.90
32698;DHT22;19087;51.062;3.754;2023-05-02T04:54:17;13.10;99.90
32698;DHT22;19087;51.062;3.754;2023-05-02T04:56:42;12.90;99.90
32698;DHT22;19087;51.062;3.754;2023-05-02T04:59:08;13.10;99.90
32698;DHT22;19087;51.062;3.754;2023-05-02T05:01:34;13.10;99.90
32698;DHT22;19087;51.062;3.754;2023-05-02T05:04:00;13.00;99.90
32698;DHT22;19087;51.062;3.754;2023-05-02T05:06:26;12.90;99.90
32698;DHT22;19087;51.062;3.754;2023-05-02T05:08:53;12.90;99.90
32698;DHT22;19087;51.062;3.754;2023-05-02T05:11:18;12.90;99.90
32698;DHT22;19087;51.062;3.754;2023-05-02T05:13:44;12.80;99.90
32698;DHT22;19087;51.062;3.754;2023-05-02T05:16:11;12.70;99.90
32698;DHT22;19087;51.062;3.754;2023-05-02T05:18:37;12.70;99.90
32698;DHT22;19087;51.062;3.754;2023-05-02T05:24:51;12.50;99.90
32698;DHT22;19087;51.062;3.754;2023-05-02T05:27:19;12.50;99.90
32698;DHT22;19087;51.062;3.754;2023-05-02T05:33:10;12.50;99.90
32698;DHT22;19087;51.062;3.754;2023-05-02T05:35:35;12.50;99.90
32698;DHT22;19087;51.062;3.754;2023-05-02T05:38:01;12.40;99.90
32698;DHT22;19087;51.062;3.754;2023-05-02T05:40:27;12.50;99.90
32698;DHT22;19087;51.062;3.754;2023-05-02T05:42:53;12.50;99.90
32698;DHT22;19087;51.062;3.754;2023-05-02T05:45:18;12.60;99.90
32698;DHT22;19087;51.062;3.754;2023-05-02T05:47:44;12.50;99.90
32698;DHT22;19087;51.062;3.754;2023-05-02T05:50:10;12.40;99.90
32698;DHT22;19087;51.062;3.754;2023-05-02T05:52:36;12.50;99.90
32698;DHT22;19087;51.062;3.754;2023-05-02T05:55:02;12.50;99.90
32698;DHT22;19087;51.062;3.754;2023-05-02T05:57:28;12.50;99.90
32698;DHT22;19087;51.062;3.754;2023-05-02T05:59:54;12.50;99.90
32698;DHT22;19087;51.062;3.754;2023-05-02T06:02:20;12.30;99.90
32698;DHT22;19087;51.062;3.754;2023-05-02T06:04:46;12.60;99.90
32698;DHT22;19087;51.062;3.754;2023-05-02T06:07:12;12.80;99.90
32698;DHT22;19087;51.062;3.754;2023-05-02T06:09:38;12.80;99.90
32698;DHT22;19087;51.062;3.754;2023-05-02T06:19:12;13.10;99.90
32698;DHT22;19087;51.062;3.754;2023-05-02T06:25:00;13.30;99.90
32698;DHT22;19087;51.062;3.754;2023-05-02T06:27:25;13.30;99.90
32698;DHT22;19087;51.062;3.754;2023-05-02T06:29:51;13.20;99.90
32698;DHT22;19087;51.062;3.754;2023-05-02T06:32:17;13.10;99.90
32698;DHT22;19087;51.062;3.754;2023-05-02T06:34:43;13.30;99.90
32698;DHT22;19087;51.062;3.754;2023-05-02T06:37:09;13.30;99.90
32698;DHT22;19087;51.062;3.754;2023-05-02T06:39:35;13.40;99.90
32698;DHT22;19087;51.062;3.754;2023-05-02T06:42:02;13.40;99.90
32698;DHT22;19087;51.062;3.754;2023-05-02T06:44:28;13.50;99.90
32698;DHT22;19087;51.062;3.754;2023-05-02T06:46:54;13.50;99.90
32698;DHT22;19087;51.062;3.754;2023-05-02T06:49:21;13.50;99.90
32698;DHT22;19087;51.062;3.754;2023-05-02T06:51:46;13.60;99.90
32698;DHT22;19087;51.062;3.754;2023-05-02T06:54:12;13.80;99.90
32698;DHT22;19087;51.062;3.754;2023-05-02T06:56:40;13.90;99.90
32698;DHT22;19087;51.062;3.754;2023-05-02T06:59:06;14.00;99.90
32698;DHT22;19087;51.062;3.754;2023-05-02T07:01:32;14.10;99.90
32698;DHT22;19087;51.062;3.754;2023-05-02T07:03:58;14.50;99.90
32698;DHT22;19087;51.062;3.754;2023-05-02T07:06:24;15.00;99.90
32698;DHT22;19087;51.062;3.754;2023-05-02T07:08:49;15.80;99.90
32698;DHT22;19087;51.062;3.754;2023-05-02T07:11:18;16.90;99.90
32698;DHT22;19087;51.062;3.754;2023-05-02T07:13:46;17.60;99.90
32698;DHT22;19087;51.062;3.754;2023-05-02T07:26:19;18.10;99.90
32698;DHT22;19087;51.062;3.754;2023-05-02T07:28:45;17.70;99.90
32698;DHT22;19087;51.062;3.754;2023-05-02T07:31:11;17.30;99.90
32698;DHT22;19087;51.062;3.754;2023-05-02T07:37:00;16.50;99.90
32698;DHT22;19087;51.062;3.754;2023-05-02T07:39:27;16.10;99.90
32698;DHT22;19087;51.062;3.754;2023-05-02T07:41:53;15.80;99.90
32698;DHT22;19087;51.062;3.754;2023-05-02T07:44:24;15.80;99.90
32698;DHT22;19087;51.062;3.754;2023-05-02T07:56:56;16.00;99.90
32698;DHT22;19087;51.062;3.754;2023-05-02T07:59:28;16.10;99.90
32698;DHT22;19087;51.062;3.754;2023-05-02T08:01:57;16.10;99.90
32698;DHT22;19087;51.062;3.754;2023-05-02T08:04:23;16.10;99.90
32698;DHT22;19087;51.062;3.754;2023-05-02T08:06:50;16.10;99.90
32698;DHT22;19087;51.062;3.754;2023-05-02T08:09:16;16.00;99.90
32698;DHT22;19087;51.062;3.754;2023-05-02T08:11:41;16.10;99.90
32698;DHT22;19087;51.062;3.754;2023-05-02T08:14:07;16.30;99.90
32698;DHT22;19087;51.062;3.754;2023-05-02T08:16:33;16.60;99.90
32698;DHT22;19087;51.062;3.754;2023-05-02T08:18:58;16.70;99.90
32698;DHT22;19087;51.062;3.754;2023-05-02T08:21:24;16.80;99.90
32698;DHT22;19087;51.062;3.754;2023-05-02T08:23:50;17.10;99.90
32698;DHT22;19087;51.062;3.754;2023-05-02T08:26:16;17.40;99.90
32698;DHT22;19087;51.062;3.754;2023-05-02T08:28:43;17.40;99.90
32698;DHT22;19087;51.062;3.754;2023-05-02T08:31:10;17.50;99.70
32698;DHT22;19087;51.062;3.754;2023-05-02T08:33:36;17.70;99.30
32698;DHT22;19087;51.062;3.754;2023-05-02T08:36:12;17.80;98.70
32698;DHT22;19087;51.062;3.754;2023-05-02T08:38:38;18.80;97.70
32698;DHT22;19087;51.062;3.754;2023-05-02T08:41:17;20.10;95.80
32698;DHT22;19087;51.062;3.754;2023-05-02T08:43:46;20.70;95.10
32698;DHT22;19087;51.062;3.754;2023-05-02T08:46:13;21.40;93.60
32698;DHT22;19087;51.062;3.754;2023-05-02T08:48:41;23.00;91.30
32698;DHT22;19087;51.062;3.754;2023-05-02T08:51:13;22.70;90.20
32698;DHT22;19087;51.062;3.754;2023-05-02T08:53:40;22.00;90.40
32698;DHT22;19087;51.062;3.754;2023-05-02T08:56:06;21.40;90.70
32698;DHT22;19087;51.062;3.754;2023-05-02T08:58:32;20.80;91.20
32698;DHT22;19087;51.062;3.754;2023-05-02T09:01:00;20.30;91.50
32698;DHT22;19087;51.062;3.754;2023-05-02T09:03:31;19.80;91.90
32698;DHT22;19087;51.062;3.754;2023-05-02T09:06:28;19.00;92.70
32698;DHT22;19087;51.062;3.754;2023-05-02T09:08:54;18.70;92.60
32698;DHT22;19087;51.062;3.754;2023-05-02T09:11:20;18.30;93.10
32698;DHT22;19087;51.062;3.754;2023-05-02T09:13:47;18.20;93.80
32698;DHT22;19087;51.062;3.754;2023-05-02T09:16:24;18.20;93.60
32698;DHT22;19087;51.062;3.754;2023-05-02T09:18:52;18.20;93.80
32698;DHT22;19087;51.062;3.754;2023-05-02T09:21:45;18.20;93.80
32698;DHT22;19087;51.062;3.754;2023-05-02T09:24:15;18.20;93.70
32698;DHT22;19087;51.062;3.754;2023-05-02T09:26:42;17.90;94.30
32698;DHT22;19087;51.062;3.754;2023-05-02T09:29:09;17.80;94.20
32698;DHT22;19087;51.062;3.754;2023-05-02T09:31:35;17.50;94.60
32698;DHT22;19087;51.062;3.754;2023-05-02T09:34:11;17.50;94.50
32698;DHT22;19087;51.062;3.754;2023-05-02T09:39:14;17.30;93.60
32698;DHT22;19087;51.062;3.754;2023-05-02T09:41:44;17.40;93.80
32698;DHT22;19087;51.062;3.754;2023-05-02T09:44:13;17.50;94.00
32698;DHT22;19087;51.062;3.754;2023-05-02T09:46:42;17.30;93.80
32698;DHT22;19087;51.062;3.754;2023-05-02T09:49:12;16.90;94.40
32698;DHT22;19087;51.062;3.754;2023-05-02T09:51:39;17.00;94.90
32698;DHT22;19087;51.062;3.754;2023-05-02T09:54:06;17.30;93.50
32698;DHT22;19087;51.062;3.754;2023-05-02T09:56:53;17.40;93.80
32698;DHT22;19087;51.062;3.754;2023-05-02T09:59:21;17.30;94.00
32698;DHT22;19087;51.062;3.754;2023-05-02T10:02:01;17.40;93.80
32698;DHT22;19087;51.062;3.754;2023-05-02T10:04:29;17.50;93.10
32698;DHT22;19087;51.062;3.754;2023-05-02T10:06:55;17.40;92.70
32698;DHT22;19087;51.062;3.754;2023-05-02T10:09:22;17.20;92.70
32698;DHT22;19087;51.062;3.754;2023-05-02T10:11:52;17.10;93.10
32698;DHT22;19087;51.062;3.754;2023-05-02T10:14:23;17.00;93.40
32698;DHT22;19087;51.062;3.754;2023-05-02T10:17:12;17.00;92.70
32698;DHT22;19087;51.062;3.754;2023-05-02T10:20:06;16.70;93.10
32698;DHT22;19087;51.062;3.754;2023-05-02T10:22:33;16.60;93.20
32698;DHT22;19087;51.062;3.754;2023-05-02T10:24:59;16.60;93.50
32698;DHT22;19087;51.062;3.754;2023-05-02T10:27:28;16.70;93.20
32698;DHT22;19087;51.062;3.754;2023-05-02T10:29:57;16.50;93.40
32698;DHT22;19087;51.062;3.754;2023-05-02T10:32:23;16.40;94.00
32698;DHT22;19087;51.062;3.754;2023-05-02T10:34:54;16.50;93.60
32698;DHT22;19087;51.062;3.754;2023-05-02T10:37:21;16.60;93.80
32698;DHT22;19087;51.062;3.754;2023-05-02T10:39:49;16.60;93.70
32698;DHT22;19087;51.062;3.754;2023-05-02T10:42:15;16.70;93.70
32698;DHT22;19087;51.062;3.754;2023-05-02T10:44:43;16.70;93.80
32698;DHT22;19087;51.062;3.754;2023-05-02T10:47:25;16.80;93.50
32698;DHT22;19087;51.062;3.754;2023-05-02T10:50:00;17.10;92.80
32698;DHT22;19087;51.062;3.754;2023-05-02T10:52:34;16.90;92.70
32698;DHT22;19087;51.062;3.754;2023-05-02T10:55:20;16.90;92.30
32698;DHT22;19087;51.062;3.754;2023-05-02T11:00:31;16.90;92.80
32698;DHT22;19087;51.062;3.754;2023-05-02T11:03:01;17.10;91.60
32698;DHT22;19087;51.062;3.754;2023-05-02T11:05:27;17.10;91.90
32698;DHT22;19087;51.062;3.754;2023-05-02T11:10:53;16.80;92.30
32698;DHT22;19087;51.062;3.754;2023-05-02T11:13:48;16.90;91.90
32698;DHT22;19087;51.062;3.754;2023-05-02T11:16:15;16.60;91.60
32698;DHT22;19087;51.062;3.754;2023-05-02T11:18:59;16.80;91.70
32698;DHT22;19087;51.062;3.754;2023-05-02T11:21:29;17.00;91.20
32698;DHT22;19087;51.062;3.754;2023-05-02T11:29:55;16.60;91.50
32698;DHT22;19087;51.062;3.754;2023-05-02T11:32:24;16.80;90.90
32698;DHT22;19087;51.062;3.754;2023-05-02T11:34:51;16.70;91.00
32698;DHT22;19087;51.062;3.754;2023-05-02T11:37:20;16.70;90.80
32698;DHT22;19087;51.062;3.754;2023-05-02T11:39:46;16.70;91.50
32698;DHT22;19087;51.062;3.754;2023-05-02T11:42:32;16.80;91.20
32698;DHT22;19087;51.062;3.754;2023-05-02T11:44:59;16.70;91.30
32698;DHT22;19087;51.062;3.754;2023-05-02T11:47:26;16.90;91.10
32698;DHT22;19087;51.062;3.754;2023-05-02T11:49:54;17.10;91.00
32698;DHT22;19087;51.062;3.754;2023-05-02T11:52:22;17.10;91.10
32698;DHT22;19087;51.062;3.754;2023-05-02T11:54:49;17.30;90.80
32698;DHT22;19087;51.062;3.754;2023-05-02T11:57:18;17.40;90.10
32698;DHT22;19087;51.062;3.754;2023-05-02T11:59:55;17.20;90.30
32698;DHT22;19087;51.062;3.754;2023-05-02T12:02:38;17.10;90.70
32698;DHT22;19087;51.062;3.754;2023-05-02T12:05:13;17.00;91.20
32698;DHT22;19087;51.062;3.754;2023-05-02T12:07:41;17.10;90.40
32698;DHT22;19087;51.062;3.754;2023-05-02T12:10:08;17.20;90.60
32698;DHT22;19087;51.062;3.754;2023-05-02T12:12:35;17.30;90.60
32698;DHT22;19087;51.062;3.754;2023-05-02T12:15:05;17.50;91.20
32698;DHT22;19087;51.062;3.754;2023-05-02T12:17:32;17.40;90.70
32698;DHT22;19087;51.062;3.754;2023-05-02T12:19:59;17.10;91.20
32698;DHT22;19087;51.062;3.754;2023-05-02T12:22:27;17.30;91.10
32698;DHT22;19087;51.062;3.754;2023-05-02T12:24:53;17.30;91.20
32698;DHT22;19087;51.062;3.754;2023-05-02T12:27:19;17.40;91.50
32698;DHT22;19087;51.062;3.754;2023-05-02T12:29:47;17.30;91.30
32698;DHT22;19087;51.062;3.754;2023-05-02T12:32:13;17.30;91.10
32698;DHT22;19087;51.062;3.754;2023-05-02T12:34:40;17.40;91.30
32698;DHT22;19087;51.062;3.754;2023-05-02T12:37:07;17.60;90.90
32698;DHT22;19087;51.062;3.754;2023-05-02T12:39:42;17.70;90.70
32698;DHT22;19087;51.062;3.754;2023-05-02T12:42:09;17.60;90.90
32698;DHT22;19087;51.062;3.754;2023-05-02T12:44:37;17.60;90.50
32698;DHT22;19087;51.062;3.754;2023-05-02T12:47:03;17.60;90.60
32698;DHT22;19087;51.062;3.754;2023-05-02T12:49:29;17.80;90.80
32698;DHT22;19087;51.062;3.754;2023-05-02T12:51:56;18.00;90.50
32698;DHT22;19087;51.062;3.754;2023-05-02T12:54:22;18.10;89.30
32698;DHT22;19087;51.062;3.754;2023-05-02T12:56:48;17.90;87.50
32698;DHT22;19087;51.062;3.754;2023-05-02T12:59:25;17.70;89.30
32698;DHT22;19087;51.062;3.754;2023-05-02T13:01:52;17.70;89.50
32698;DHT22;19087;51.062;3.754;2023-05-02T13:04:17;17.60;90.30
32698;DHT22;19087;51.062;3.754;2023-05-02T13:06:43;17.80;88.20
32698;DHT22;19087;51.062;3.754;2023-05-02T13:09:09;17.80;86.90
32698;DHT22;19087;51.062;3.754;2023-05-02T13:11:34;17.60;87.30
32698;DHT22;19087;51.062;3.754;2023-05-02T13:14:00;17.50;87.70
32698;DHT22;19087;51.062;3.754;2023-05-02T13:16:29;17.60;87.10
32698;DHT22;19087;51.062;3.754;2023-05-02T13:18:55;17.50;87.30
32698;DHT22;19087;51.062;3.754;2023-05-02T13:21:21;17.50;87.90
32698;DHT22;19087;51.062;3.754;2023-05-02T13:23:47;17.50;87.70
32698;DHT22;19087;51.062;3.754;2023-05-02T13:26:14;17.50;86.50
32698;DHT22;19087;51.062;3.754;2023-05-02T13:28:41;17.40;86.40
32698;DHT22;19087;51.062;3.754;2023-05-02T13:31:06;17.30;87.30
32698;DHT22;19087;51.062;3.754;2023-05-02T13:33:32;17.50;87.60
32698;DHT22;19087;51.062;3.754;2023-05-02T13:35:58;17.60;87.40
32698;DHT22;19087;51.062;3.754;2023-05-02T13:38:24;17.70;86.70
32698;DHT22;19087;51.062;3.754;2023-05-02T13:40:50;17.70;86.00
32698;DHT22;19087;51.062;3.754;2023-05-02T13:43:16;17.70;87.10
32698;DHT22;19087;51.062;3.754;2023-05-02T13:45:41;17.80;87.60
32698;DHT22;19087;51.062;3.754;2023-05-02T13:48:07;17.80;88.10
32698;DHT22;19087;51.062;3.754;2023-05-02T13:50:33;17.60;88.50
32698;DHT22;19087;51.062;3.754;2023-05-02T13:53:01;17.70;88.50
32698;DHT22;19087;51.062;3.754;2023-05-02T13:55:28;17.60;89.10
32698;DHT22;19087;51.062;3.754;2023-05-02T13:57:54;17.50;88.60
32698;DHT22;19087;51.062;3.754;2023-05-02T14:00:20;17.50;89.00
32698;DHT22;19087;51.062;3.754;2023-05-02T14:02:46;17.40;88.50
32698;DHT22;19087;51.062;3.754;2023-05-02T14:05:13;17.30;88.10
32698;DHT22;19087;51.062;3.754;2023-05-02T14:07:39;17.40;87.90
32698;DHT22;19087;51.062;3.754;2023-05-02T14:10:07;17.40;87.70
32698;DHT22;19087;51.062;3.754;2023-05-02T14:12:34;17.50;88.20
32698;DHT22;19087;51.062;3.754;2023-05-02T14:15:00;17.40;87.40
32698;DHT22;19087;51.062;3.754;2023-05-02T14:17:26;17.30;86.20
32698;DHT22;19087;51.062;3.754;2023-05-02T14:19:52;17.30;87.40
32698;DHT22;19087;51.062;3.754;2023-05-02T14:22:17;17.30;87.00
32698;DHT22;19087;51.062;3.754;2023-05-02T14:24:43;17.30;88.20
32698;DHT22;19087;51.062;3.754;2023-05-02T14:27:10;17.10;88.00
32698;DHT22;19087;51.062;3.754;2023-05-02T14:29:44;16.90;88.10
32698;DHT22;19087;51.062;3.754;2023-05-02T14:32:11;16.80;88.40
32698;DHT22;19087;51.062;3.754;2023-05-02T14:34:37;16.90;88.80
32698;DHT22;19087;51.062;3.754;2023-05-02T14:37:06;17.10;88.00
32698;DHT22;19087;51.062;3.754;2023-05-02T14:39:38;17.10;88.10
32698;DHT22;19087;51.062;3.754;2023-05-02T14:42:10;17.10;88.10
32698;DHT22;19087;51.062;3.754;2023-05-02T14:44:42;16.90;88.80
32698;DHT22;19087;51.062;3.754;2023-05-02T14:47:08;16.80;89.30
32698;DHT22;19087;51.062;3.754;2023-05-02T14:49:36;16.80;89.30
32698;DHT22;19087;51.062;3.754;2023-05-02T14:52:04;16.50;89.90
32698;DHT22;19087;51.062;3.754;2023-05-02T14:54:31;16.60;89.70
32698;DHT22;19087;51.062;3.754;2023-05-02T14:56:57;16.60;89.80
32698;DHT22;19087;51.062;3.754;2023-05-02T14:59:26;16.60;90.10
32698;DHT22;19087;51.062;3.754;2023-05-02T15:01:52;16.60;89.40
32698;DHT22;19087;51.062;3.754;2023-05-02T15:04:18;16.50;89.00
32698;DHT22;19087;51.062;3.754;2023-05-02T15:06:44;16.50;90.00
32698;DHT22;19087;51.062;3.754;2023-05-02T15:09:10;16.70;89.60
32698;DHT22;19087;51.062;3.754;2023-05-02T15:11:37;17.00;88.00
32698;DHT22;19087;51.062;3.754;2023-05-02T15:14:02;17.00;87.90
32698;DHT22;19087;51.062;3.754;2023-05-02T15:16:29;16.90;86.80
32698;DHT22;19087;51.062;3.754;2023-05-02T15:18:58;16.90;87.60
32698;DHT22;19087;51.062;3.754;2023-05-02T15:21:24;16.70;88.30
32698;DHT22;19087;51.062;3.754;2023-05-02T15:23:50;16.70;87.80
32698;DHT22;19087;51.062;3.754;2023-05-02T15:26:17;16.60;88.10
32698;DHT22;19087;51.062;3.754;2023-05-02T15:28:46;16.60;87.30
32698;DHT22;19087;51.062;3.754;2023-05-02T15:31:11;16.60;86.80
32698;DHT22;19087;51.062;3.754;2023-05-02T15:33:40;16.50;87.40
32698;DHT22;19087;51.062;3.754;2023-05-02T15:36:06;16.50;87.90
32698;DHT22;19087;51.062;3.754;2023-05-02T15:38:32;16.50;86.30
32698;DHT22;19087;51.062;3.754;2023-05-02T15:41:04;16.60;85.90
32698;DHT22;19087;51.062;3.754;2023-05-02T15:43:31;16.50;86.80
32698;DHT22;19087;51.062;3.754;2023-05-02T15:45:58;16.50;86.90
32698;DHT22;19087;51.062;3.754;2023-05-02T15:48:31;16.40;86.40
32698;DHT22;19087;51.062;3.754;2023-05-02T15:51:00;16.40;85.60
32698;DHT22;19087;51.062;3.754;2023-05-02T15:53:27;16.40;85.00
32698;DHT22;19087;51.062;3.754;2023-05-02T15:55:53;16.10;85.20
32698;DHT22;19087;51.062;3.754;2023-05-02T15:58:20;15.90;86.20
32698;DHT22;19087;51.062;3.754;2023-05-02T16:00:46;15.70;86.80
32698;DHT22;19087;51.062;3.754;2023-05-02T16:03:13;15.80;87.10
32698;DHT22;19087;51.062;3.754;2023-05-02T16:05:40;15.70;87.90
32698;DHT22;19087;51.062;3.754;2023-05-02T16:08:06;15.70;88.50
32698;DHT22;19087;51.062;3.754;2023-05-02T16:10:32;15.80;86.50
32698;DHT22;19087;51.062;3.754;2023-05-02T16:13:00;15.90;85.90
32698;DHT22;19087;51.062;3.754;2023-05-02T16:15:26;15.90;85.00
32698;DHT22;19087;51.062;3.754;2023-05-02T16:17:54;15.90;84.70
32698;DHT22;19087;51.062;3.754;2023-05-02T16:20:20;15.70;85.80
32698;DHT22;19087;51.062;3.754;2023-05-02T16:22:49;15.70;87.10
32698;DHT22;19087;51.062;3.754;2023-05-02T16:25:16;15.80;86.50
32698;DHT22;19087;51.062;3.754;2023-05-02T16:27:43;15.90;86.10
32698;DHT22;19087;51.062;3.754;2023-05-02T16:30:09;16.00;85.50
32698;DHT22;19087;51.062;3.754;2023-05-02T16:32:35;16.00;85.80
32698;DHT22;19087;51.062;3.754;2023-05-02T16:35:05;16.00;85.70
32698;DHT22;19087;51.062;3.754;2023-05-02T16:37:33;15.80;86.50
32698;DHT22;19087;51.062;3.754;2023-05-02T16:39:59;15.80;86.70
32698;DHT22;19087;51.062;3.754;2023-05-02T16:42:26;15.60;87.10
32698;DHT22;19087;51.062;3.754;2023-05-02T16:44:55;15.70;86.20
32698;DHT22;19087;51.062;3.754;2023-05-02T16:47:22;15.60;87.50
32698;DHT22;19087;51.062;3.754;2023-05-02T16:49:54;15.40;88.70
32698;DHT22;19087;51.062;3.754;2023-05-02T16:52:20;15.30;89.40